Time;durP1;ratioP1;P1;durP2;ratioP2;P2;SDS_P1;SDS_P2;PMS_P1;PMS_P2;Temp;Humidity;BMP_temperature;BMP_pressure;BME280_temperature;BME280_humidity;BME280_pressure;Samples;Min_cycle;Max_cycle;Signal;HPM_P1;HPM_P2
2022/10/03 00:01:35;;;;;;;5.60;1.02;;;;;;;;;;5024886;28;20422;-72
2022/10/03 00:04:17;;;;;;;2.33;0.73;;;;;;;;;;5025015;28;20046;-72
2022/10/03 00:06:47;;;;;;;3.58;0.63;;;;;;;;;;5026025;28;20053;-72
2022/10/03 00:09:35;;;;;;;5.32;0.95;;;;;;;;;;5026307;28;20060;-72
2022/10/03 00:12:35;;;;;;;9.65;1.10;;;;;;;;;;5026005;28;20121;-72
2022/10/03 00:15:24;;;;;;;5.55;0.95;;;;;;;;;;5026821;28;20049;-71
2022/10/03 00:17:54;;;;;;;2.55;0.60;;;;;;;;;;5026397;28;20065;-71
2022/10/03 00:20:29;;;;;;;;;;;;;;;;;;5026906;28;20049;-72
2022/10/03 00:23:43;;;;;;;3.42;0.70;;;;;;;;;;5040478;28;19924;-72
2022/10/03 00:26:27;;;;;;;4.10;0.70;;;;;;;;;;5030760;28;20538;-72
2022/10/03 00:29:13;;;;;;;4.82;0.88;;;;;;;;;;5045157;28;20053;-72
2022/10/03 00:31:54;;;;;;;4.88;0.93;;;;;;;;;;5045065;28;20056;-72
2022/10/03 00:34:41;;;;;;;4.35;0.85;;;;;;;;;;5045659;28;20049;-74
2022/10/03 00:37:19;;;;;;;5.63;0.90;;;;;;;;;;5045567;28;20121;-72
2022/10/03 00:40:10;;;;;;;6.18;0.95;;;;;;;;;;5045499;28;20057;-72
2022/10/03 00:42:42;;;;;;;2.72;0.65;;;;;;;;;;5045007;28;20049;-72
2022/10/03 00:45:44;;;;;;;7.10;0.98;;;;;;;;;;5045237;28;20056;-73
2022/10/03 00:48:16;;;;;;;7.47;0.93;;;;;;;;;;5045585;28;20053;-72
2022/10/03 00:50:55;;;;;;;2.03;0.85;;;;;;;;;;5045328;28;20512;-72
2022/10/03 00:53:43;;;;;;;7.32;1.00;;;;;;;;;;5045757;28;20048;-72
2022/10/03 00:56:26;;;;;;;4.07;1.00;;;;;;;;;;5045350;28;20388;-73
2022/10/03 00:59:21;;;;;;;4.53;0.85;;;;;;;;;;5045356;28;20048;-73
2022/10/03 01:01:51;;;;;;;3.70;0.70;;;;;;;;;;5045181;28;20068;-72
2022/10/03 01:04:32;;;;;;;4.28;1.00;;;;;;;;;;5044935;28;20052;-72
2022/10/03 01:07:28;;;;;;;4.05;1.10;;;;;;;;;;5043950;28;20064;-78
2022/10/03 01:10:00;;;;;;;4.38;0.82;;;;;;;;;;5048457;28;20041;-72
2022/10/03 01:12:39;;;;;;;10.05;1.00;;;;;;;;;;5048490;28;20045;-72
2022/10/03 01:15:14;;;;;;;4.68;0.82;;;;;;;;;;5047543;28;20040;-72
2022/10/03 01:17:50;;;;;;;8.10;1.00;;;;;;;;;;5048778;28;20834;-72
2022/10/03 01:20:42;;;;;;;3.00;1.10;;;;;;;;;;5048700;28;20538;-73
2022/10/03 01:23:21;;;;;;;2.95;0.82;;;;;;;;;;5048860;28;20491;-71
2022/10/03 01:26:23;;;;;;;3.13;0.77;;;;;;;;;;5048973;28;20055;-72
2022/10/03 01:32:08;;;;;;;3.75;0.80;;;;;;;;;;5048857;28;20049;-72
2022/10/03 01:34:44;;;;;;;5.45;0.80;;;;;;;;;;5048620;28;20412;-71
2022/10/03 01:37:37;;;;;;;6.38;1.20;;;;;;;;;;5048290;28;20060;-72
2022/10/03 01:40:21;;;;;;;1.00;0.60;;;;;;;;;;5048711;28;20053;-72
2022/10/03 01:43:19;;;;;;;3.42;0.80;;;;;;;;;;5048998;28;20056;-72
2022/10/03 01:46:25;;;;;;;7.38;0.93;;;;;;;;;;5047989;28;20056;-72
2022/10/03 01:49:01;;;;;;;3.60;0.85;;;;;;;;;;5013676;28;20053;-71
2022/10/03 01:52:09;;;;;;;3.33;0.93;;;;;;;;;;5048064;28;20056;-72
2022/10/03 01:54:58;;;;;;;4.75;1.10;;;;;;;;;;5048362;28;20407;-72
2022/10/03 01:57:34;;;;;;;2.80;0.90;;;;;;;;;;5048320;28;20045;-72
2022/10/03 02:00:14;;;;;;;8.75;0.90;;;;;;;;;;5047892;28;20049;-72
2022/10/03 02:02:59;;;;;;;4.20;0.80;;;;;;;;;;5048549;28;20056;-72
2022/10/03 02:06:05;;;;;;;7.20;0.75;;;;;;;;;;5047913;28;20049;-71
2022/10/03 02:09:00;;;;;;;4.18;0.90;;;;;;;;;;5042159;28;20065;-72
2022/10/03 02:11:51;;;;;;;3.55;0.80;;;;;;;;;;5047759;28;20894;-72
2022/10/03 02:14:49;;;;;;;3.70;0.77;;;;;;;;;;5046064;28;20048;-71
2022/10/03 02:17:40;;;;;;;1.42;0.63;;;;;;;;;;5044749;28;20060;-72
2022/10/03 02:20:30;;;;;;;3.85;0.80;;;;;;;;;;5045191;28;20064;-71
2022/10/03 02:23:00;;;;;;;4.03;0.63;;;;;;;;;;5045709;28;20504;-71
2022/10/03 02:25:42;;;;;;;4.22;0.88;;;;;;;;;;5044847;28;20403;-71
2022/10/03 02:28:29;;;;;;;;;;;;;;;;;;5047232;28;20044;-71
2022/10/03 02:31:42;;;;;;;2.25;0.70;;;;;;;;;;5047988;28;19932;-71
2022/10/03 02:34:24;;;;;;;;;;;;;;;;;;5048437;28;20041;-72
2022/10/03 02:37:15;;;;;;;2.55;0.80;;;;;;;;;;5047531;28;19924;-71
2022/10/03 02:40:16;;;;;;;4.72;0.70;;;;;;;;;;5047665;28;20045;-72
2022/10/03 02:43:04;;;;;;;3.33;0.68;;;;;;;;;;5047671;28;20049;-71
2022/10/03 02:45:55;;;;;;;7.95;0.80;;;;;;;;;;5047691;28;20048;-71
2022/10/03 02:48:50;;;;;;;3.75;1.08;;;;;;;;;;5047451;28;20044;-71
2022/10/03 02:51:46;;;;;;;2.97;0.57;;;;;;;;;;5047266;28;20404;-71
2022/10/03 02:54:53;;;;;;;1.70;0.57;;;;;;;;;;5047313;28;20056;-72
2022/10/03 02:57:44;;;;;;;10.50;0.82;;;;;;;;;;5047202;28;20053;-71
2022/10/03 03:00:21;;;;;;;4.85;0.50;;;;;;;;;;5047205;28;20048;-71
2022/10/03 03:03:29;;;;;;;5.22;0.80;;;;;;;;;;5047554;28;20423;-70
2022/10/03 03:06:31;;;;;;;2.45;0.70;;;;;;;;;;5046960;28;20052;-71
2022/10/03 03:09:34;;;;;;;3.20;0.68;;;;;;;;;;5047394;28;20045;-72
2022/10/03 03:12:39;;;;;;;3.10;0.60;;;;;;;;;;5045982;28;20084;-71
2022/10/03 03:15:30;;;;;;;2.65;0.60;;;;;;;;;;5046890;28;20051;-71
2022/10/03 03:18:30;;;;;;;3.50;0.65;;;;;;;;;;5047180;28;20052;-70
2022/10/03 03:21:19;;;;;;;4.07;0.75;;;;;;;;;;5046375;28;20061;-71
2022/10/03 03:24:10;;;;;;;5.45;0.63;;;;;;;;;;5046675;28;20496;-71
2022/10/03 03:27:07;;;;;;;0.38;0.35;;;;;;;;;;5046989;28;20049;-71
2022/10/03 03:30:07;;;;;;;2.13;0.63;;;;;;;;;;5045137;28;20052;-72
2022/10/03 03:32:49;;;;;;;2.40;0.50;;;;;;;;;;5046780;28;20033;-70
2022/10/03 03:35:47;;;;;;;4.25;0.70;;;;;;;;;;5046506;28;20455;-71
2022/10/03 03:38:34;;;;;;;6.68;0.90;;;;;;;;;;5045821;28;20053;-71
2022/10/03 03:41:07;;;;;;;6.07;0.73;;;;;;;;;;5046668;28;20530;-71
2022/10/03 03:43:49;;;;;;;3.30;0.70;;;;;;;;;;5046285;28;20052;-71
2022/10/03 03:46:49;;;;;;;3.00;0.70;;;;;;;;;;5046540;28;20057;-71
2022/10/03 03:49:46;;;;;;;7.00;0.93;;;;;;;;;;5045819;28;20059;-70
2022/10/03 03:52:29;;;;;;;4.20;0.80;;;;;;;;;;5045082;28;20053;-71
2022/10/03 03:55:08;;;;;;;8.43;0.90;;;;;;;;;;5046679;28;20056;-71
2022/10/03 03:57:55;;;;;;;5.57;0.90;;;;;;;;;;5046354;28;20053;-71
2022/10/03 04:01:05;;;;;;;4.53;0.80;;;;;;;;;;5046285;28;20045;-71
2022/10/03 04:03:59;;;;;;;3.47;0.70;;;;;;;;;;5044543;28;20064;-71
2022/10/03 04:06:35;;;;;;;1.92;0.85;;;;;;;;;;5046326;28;20468;-71
2022/10/03 04:09:37;;;;;;;1.02;0.63;;;;;;;;;;5045656;28;20079;-71
2022/10/03 04:12:56;;;;;;;5.07;0.80;;;;;;;;;;5045846;28;20423;-71
2022/10/03 04:15:44;;;;;;;4.80;0.90;;;;;;;;;;5046281;28;20515;-71
2022/10/03 04:18:57;;;;;;;2.85;0.75;;;;;;;;;;5046428;28;20545;-70
2022/10/03 04:21:34;;;;;;;4.13;0.73;;;;;;;;;;5046508;28;20507;-71
2022/10/03 04:24:10;;;;;;;1.23;0.70;;;;;;;;;;5046375;28;20048;-71
2022/10/03 04:26:52;;;;;;;2.60;0.70;;;;;;;;;;5046373;28;20057;-71
2022/10/03 04:29:39;;;;;;;3.58;0.70;;;;;;;;;;5045744;28;20084;-71
2022/10/03 04:32:34;;;;;;;8.00;0.80;;;;;;;;;;5045900;28;20049;-71
2022/10/03 04:35:14;;;;;;;1.10;0.65;;;;;;;;;;5044900;28;20048;-70
2022/10/03 04:37:55;;;;;;;3.22;0.77;;;;;;;;;;5045681;28;20570;-70
2022/10/03 04:40:59;;;;;;;2.58;0.52;;;;;;;;;;5046060;28;20057;-71
2022/10/03 04:43:42;;;;;;;0.70;0.50;;;;;;;;;;5048687;28;20041;-71
2022/10/03 04:47:05;;;;;;;4.80;0.93;;;;;;;;;;5049768;28;20057;-70
2022/10/03 04:49:51;;;;;;;5.22;0.85;;;;;;;;;;5007236;28;20062;-71
2022/10/03 04:52:39;;;;;;;2.92;0.60;;;;;;;;;;5007133;28;20543;-71
2022/10/03 04:55:37;;;;;;;3.10;0.63;;;;;;;;;;5039734;28;20471;-71
2022/10/03 04:58:25;;;;;;;4.07;0.70;;;;;;;;;;5049578;28;20534;-72
2022/10/03 05:01:16;;;;;;;5.13;0.70;;;;;;;;;;5049390;28;20049;-70
2022/10/03 05:04:15;;;;;;;3.50;1.00;;;;;;;;;;5049866;28;20041;-71
2022/10/03 05:07:08;;;;;;;2.33;0.68;;;;;;;;;;5048714;28;20064;-71
2022/10/03 05:09:53;;;;;;;4.15;0.60;;;;;;;;;;5048857;28;20719;-70
2022/10/03 05:12:50;;;;;;;2.97;0.82;;;;;;;;;;5047704;28;20049;-71
2022/10/03 05:15:32;;;;;;;3.65;0.70;;;;;;;;;;5049625;28;20049;-71
2022/10/03 05:18:28;;;;;;;4.25;0.73;;;;;;;;;;5049603;28;20055;-71
2022/10/03 05:21:04;;;;;;;4.97;0.63;;;;;;;;;;5049502;28;20045;-71
2022/10/03 05:24:01;;;;;;;2.95;0.57;;;;;;;;;;5049298;28;20045;-71
2022/10/03 05:26:48;;;;;;;5.85;0.93;;;;;;;;;;5044791;28;20057;-70
2022/10/03 05:29:36;;;;;;;4.88;0.73;;;;;;;;;;5048884;28;20048;-71
2022/10/03 05:32:30;;;;;;;2.53;0.63;;;;;;;;;;5048713;28;20048;-71
2022/10/03 05:35:24;;;;;;;5.47;0.70;;;;;;;;;;5049025;28;20095;-70
2022/10/03 05:38:15;;;;;;;6.80;0.68;;;;;;;;;;5048717;28;20041;-72
2022/10/03 05:41:04;;;;;;;3.10;0.73;;;;;;;;;;5048595;28;20037;-71
2022/10/03 05:43:48;;;;;;;5.43;0.90;;;;;;;;;;5048608;28;20045;-71
2022/10/03 05:46:45;;;;;;;6.15;0.75;;;;;;;;;;5048937;28;20057;-71
2022/10/03 05:49:41;;;;;;;5.13;0.70;;;;;;;;;;5048336;28;20044;-71
2022/10/03 05:52:58;;;;;;;2.15;0.73;;;;;;;;;;5048559;28;20057;-71
2022/10/03 05:55:46;;;;;;;2.75;0.52;;;;;;;;;;5047040;28;20041;-71
2022/10/03 05:59:13;;;;;;;5.53;0.47;;;;;;;;;;5048446;28;20056;-70
2022/10/03 06:02:18;;;;;;;5.15;0.73;;;;;;;;;;5005855;28;20050;-70
2022/10/03 06:05:02;;;;;;;2.83;0.68;;;;;;;;;;5048058;28;20416;-71
2022/10/03 06:07:58;;;;;;;3.10;0.60;;;;;;;;;;5047990;28;20045;-71
2022/10/03 06:10:38;;;;;;;7.00;0.93;;;;;;;;;;5048190;28;20526;-71
2022/10/03 06:13:25;;;;;;;2.30;0.60;;;;;;;;;;5048582;28;20056;-71
2022/10/03 06:16:10;;;;;;;7.35;0.85;;;;;;;;;;5047808;28;20053;-70
2022/10/03 06:18:52;;;;;;;4.07;0.60;;;;;;;;;;5048274;28;20044;-71
2022/10/03 06:21:50;;;;;;;1.42;0.52;;;;;;;;;;5048519;28;20056;-70
2022/10/03 06:24:38;;;;;;;2.92;0.70;;;;;;;;;;5046712;28;20045;-71
2022/10/03 06:27:45;;;;;;;2.05;0.75;;;;;;;;;;5047805;28;20060;-70
2022/10/03 06:30:45;;;;;;;2.95;0.70;;;;;;;;;;5047667;28;20040;-71
2022/10/03 06:33:34;;;;;;;2.38;0.60;;;;;;;;;;5047673;28;20044;-70
2022/10/03 06:36:33;;;;;;;3.85;0.70;;;;;;;;;;5047811;28;20037;-71
2022/10/03 06:39:44;;;;;;;1.13;0.50;;;;;;;;;;5027182;28;20564;-71
2022/10/03 06:42:43;;;;;;;1.60;0.70;;;;;;;;;;5028957;28;20397;-72
2022/10/03 06:45:34;;;;;;;3.45;0.70;;;;;;;;;;5047137;28;20052;-71
2022/10/03 06:48:26;;;;;;;3.72;0.60;;;;;;;;;;5047299;28;20408;-71
2022/10/03 06:51:15;;;;;;;1.27;0.45;;;;;;;;;;5047707;28;20053;-70
2022/10/03 06:53:50;;;;;;;1.00;0.60;;;;;;;;;;5046526;28;20048;-71
2022/10/03 06:57:03;;;;;;;2.97;0.45;;;;;;;;;;5047529;28;20060;-71
2022/10/03 06:59:34;;;;;;;1.40;0.30;;;;;;;;;;5045728;28;20060;-71
2022/10/03 07:02:26;;;;;;;9.38;0.82;;;;;;;;;;5046668;28;20060;-71
2022/10/03 07:05:18;;;;;;;6.57;0.93;;;;;;;;;;5047011;28;20052;-71
2022/10/03 07:08:18;;;;;;;3.63;0.77;;;;;;;;;;5047202;28;20412;-71
2022/10/03 07:10:57;;;;;;;1.55;0.60;;;;;;;;;;5046714;28;20094;-71
2022/10/03 07:14:13;;;;;;;2.63;0.60;;;;;;;;;;5047034;28;20041;-70
2022/10/03 07:17:21;;;;;;;4.63;0.70;;;;;;;;;;5005208;28;20058;-71
2022/10/03 07:19:59;;;;;;;2.15;0.75;;;;;;;;;;5046868;28;20048;-71
2022/10/03 07:22:51;;;;;;;3.03;0.80;;;;;;;;;;5047164;28;20526;-71
2022/10/03 07:25:59;;;;;;;3.45;0.60;;;;;;;;;;5046685;28;20048;-71
2022/10/03 07:29:07;;;;;;;3.60;0.80;;;;;;;;;;5046602;28;20045;-71
2022/10/03 07:32:11;;;;;;;11.50;0.77;;;;;;;;;;5046910;28;20051;-71
2022/10/03 07:35:10;;;;;;;3.08;0.85;;;;;;;;;;5046853;28;20049;-70
2022/10/03 07:41:17;;;;;;;9.15;0.90;;;;;;;;;;5046536;28;20041;-71
2022/10/03 07:43:56;;;;;;;3.88;0.80;;;;;;;;;;5045022;28;20053;-72
2022/10/03 07:47:09;;;;;;;1.60;0.50;;;;;;;;;;5046950;28;20048;-71
2022/10/03 07:50:09;;;;;;;13.85;1.05;;;;;;;;;;5046145;28;20060;-71
2022/10/03 07:53:10;;;;;;;6.85;0.93;;;;;;;;;;5027544;28;20065;-71
2022/10/03 07:55:59;;;;;;;5.20;1.05;;;;;;;;;;5046538;28;20052;-71
2022/10/03 07:58:56;;;;;;;6.30;1.63;;;;;;;;;;5046079;28;20040;-71
2022/10/03 08:01:35;;;;;;;6.63;0.82;;;;;;;;;;5047098;28;20044;-71
2022/10/03 08:04:26;;;;;;;4.28;1.00;;;;;;;;;;5046170;28;20041;-71
2022/10/03 08:07:03;;;;;;;1.25;0.70;;;;;;;;;;5046378;28;20049;-71
2022/10/03 08:09:50;;;;;;;3.17;0.70;;;;;;;;;;5046037;28;20049;-71
2022/10/03 08:12:54;;;;;;;5.90;0.65;;;;;;;;;;5046132;28;20045;-71
2022/10/03 08:15:55;;;;;;;3.50;0.75;;;;;;;;;;5046505;28;20048;-70
2022/10/03 08:19:04;;;;;;;4.80;0.80;;;;;;;;;;5048334;28;20384;-71
2022/10/03 08:21:55;;;;;;;4.88;1.10;;;;;;;;;;5036356;28;20068;-71
2022/10/03 08:24:48;;;;;;;6.05;1.23;;;;;;;;;;5050829;28;20056;-71
2022/10/03 08:27:52;;;;;;;5.45;1.02;;;;;;;;;;5050185;28;20047;-71
2022/10/03 08:31:03;;;;;;;8.43;2.08;;;;;;;;;;5050523;28;20052;-71
2022/10/03 08:33:56;;;;;;;9.70;1.00;;;;;;;;;;5029454;28;20061;-70
2022/10/03 08:37:03;;;;;;;15.77;2.03;;;;;;;;;;5050065;28;20586;-71
2022/10/03 08:39:33;;;;;;;13.80;1.20;;;;;;;;;;5049941;28;20048;-71
2022/10/03 08:42:21;;;;;;;14.88;2.10;;;;;;;;;;5049877;28;20052;-71
2022/10/03 08:45:30;;;;;;;9.32;2.40;;;;;;;;;;5050108;28;20041;-71
2022/10/03 08:48:34;;;;;;;16.15;3.40;;;;;;;;;;5013761;28;20057;-71
2022/10/03 08:51:27;;;;;;;17.45;3.00;;;;;;;;;;5049761;28;20037;-72
2022/10/03 08:54:20;;;;;;;14.23;2.60;;;;;;;;;;5048084;28;20135;-71
2022/10/03 08:57:32;;;;;;;21.45;3.30;;;;;;;;;;5044795;28;20061;-71
2022/10/03 09:00:14;;;;;;;17.88;4.05;;;;;;;;;;5049538;28;20411;-70
2022/10/03 09:03:02;;;;;;;16.00;4.70;;;;;;;;;;5049279;28;20531;-72
2022/10/03 09:06:32;;;;;;;23.30;6.30;;;;;;;;;;5049540;28;20237;-71
2022/10/03 09:09:52;;;;;;;15.98;5.80;;;;;;;;;;5043159;28;20053;-72
2022/10/03 09:12:41;;;;;;;17.88;5.40;;;;;;;;;;5026991;28;20080;-72
2022/10/03 09:15:26;;;;;;;13.35;5.18;;;;;;;;;;5048977;28;20056;-72
2022/10/03 09:18:16;;;;;;;15.60;5.18;;;;;;;;;;5047750;28;20060;-71
2022/10/03 09:21:05;;;;;;;13.95;5.32;;;;;;;;;;5028905;28;20542;-72
2022/10/03 09:23:41;;;;;;;16.98;6.25;;;;;;;;;;5048595;28;20419;-72
2022/10/03 09:26:45;;;;;;;12.52;4.97;;;;;;;;;;5049163;28;20431;-72
2022/10/03 09:29:27;;;;;;;14.30;5.15;;;;;;;;;;5049251;28;20045;-71
2022/10/03 09:32:16;;;;;;;13.50;5.13;;;;;;;;;;5049282;28;20053;-71
2022/10/03 09:35:10;;;;;;;19.13;5.22;;;;;;;;;;5049389;28;20048;-71
2022/10/03 09:37:52;;;;;;;17.92;4.78;;;;;;;;;;5049104;28;20045;-71
2022/10/03 09:40:33;;;;;;;13.45;5.05;;;;;;;;;;5049201;28;20055;-71
2022/10/03 09:43:25;;;;;;;18.17;5.22;;;;;;;;;;5048809;28;20040;-72
2022/10/03 09:46:04;;;;;;;18.73;5.47;;;;;;;;;;5048813;28;20045;-71
2022/10/03 09:48:57;;;;;;;20.30;5.78;;;;;;;;;;5048978;28;20052;-70
2022/10/03 09:51:59;;;;;;;16.55;5.93;;;;;;;;;;5049050;28;20060;-70
2022/10/03 09:55:11;;;;;;;14.88;5.38;;;;;;;;;;5049024;28;20045;-70
2022/10/03 09:57:44;;;;;;;13.60;4.35;;;;;;;;;;5042456;28;20061;-73
2022/10/03 10:00:31;;;;;;;33.65;4.43;;;;;;;;;;5048725;28;20045;-71
2022/10/03 10:03:36;;;;;;;34.28;5.18;;;;;;;;;;5048808;28;20052;-70
2022/10/03 10:06:47;;;;;;;22.60;5.28;;;;;;;;;;5048538;28;20349;-71
2022/10/03 10:09:42;;;;;;;34.53;5.72;;;;;;;;;;5043023;28;20056;-71
2022/10/03 10:12:32;;;;;;;28.30;9.00;;;;;;;;;;5048144;28;20069;-75
2022/10/03 10:15:05;;;;;;;11.50;5.60;;;;;;;;;;5048186;28;20056;-70
2022/10/03 10:17:58;;;;;;;19.98;5.80;;;;;;;;;;5048565;28;20045;-71
2022/10/03 10:20:59;;;;;;;11.57;5.47;;;;;;;;;;5048241;28;20041;-70
2022/10/03 10:23:44;;;;;;;24.70;5.68;;;;;;;;;;5047927;28;20416;-71
2022/10/03 10:26:36;;;;;;;17.23;5.60;;;;;;;;;;5048075;28;20052;-70
2022/10/03 10:29:21;;;;;;;23.90;5.40;;;;;;;;;;5047905;28;20048;-70
2022/10/03 10:32:00;;;;;;;15.43;6.90;;;;;;;;;;5048179;28;20044;-73
2022/10/03 10:34:39;;;;;;;14.07;7.03;;;;;;;;;;5047560;28;20037;-71
2022/10/03 10:37:39;;;;;;;19.42;6.40;;;;;;;;;;5046826;28;20052;-75
2022/10/03 10:40:41;;;;;;;11.40;5.85;;;;;;;;;;5047444;28;20720;-71
2022/10/03 10:43:33;;;;;;;18.55;6.38;;;;;;;;;;5048089;28;20048;-71
2022/10/03 10:46:11;;;;;;;19.02;6.57;;;;;;;;;;5046704;28;20060;-70
2022/10/03 10:49:17;;;;;;;28.17;6.60;;;;;;;;;;5047504;28;20056;-71
2022/10/03 10:52:14;;;;;;;20.67;6.32;;;;;;;;;;5045795;28;20052;-70
2022/10/03 10:55:17;;;;;;;24.60;11.07;;;;;;;;;;5046944;28;20520;-70
2022/10/03 10:58:25;;;;;;;16.98;7.85;;;;;;;;;;5047608;28;20531;-75
2022/10/03 11:01:22;;;;;;;12.65;6.10;;;;;;;;;;5048215;28;20456;-72
2022/10/03 11:04:03;;;;;;;17.65;6.78;;;;;;;;;;5047551;28;20052;-71
2022/10/03 11:06:36;;;;;;;17.20;6.05;;;;;;;;;;5047313;28;20045;-72
2022/10/03 11:09:44;;;;;;;20.77;6.03;;;;;;;;;;5047019;28;20508;-72
2022/10/03 11:12:36;;;;;;;8.13;4.47;;;;;;;;;;5047054;28;20056;-71
2022/10/03 11:15:46;;;;;;;14.45;5.32;;;;;;;;;;5047108;28;20072;-71
2022/10/03 11:18:42;;;;;;;11.15;5.10;;;;;;;;;;5046635;28;20515;-71
2022/10/03 11:21:53;;;;;;;10.82;4.78;;;;;;;;;;5029338;28;20068;-69
2022/10/03 11:24:41;;;;;;;13.05;5.32;;;;;;;;;;5047140;28;20084;-76
2022/10/03 11:27:48;;;;;;;12.70;5.45;;;;;;;;;;5046534;28;20041;-75
2022/10/03 11:30:36;;;;;;;15.00;6.97;;;;;;;;;;5047052;28;20064;-72
2022/10/03 11:33:27;;;;;;;16.70;6.07;;;;;;;;;;5044925;28;20052;-71
2022/10/03 11:36:18;;;;;;;15.05;6.97;;;;;;;;;;5045975;28;20459;-71
2022/10/03 11:39:30;;;;;;;12.27;5.55;;;;;;;;;;5045615;28;20056;-72
2022/10/03 11:42:36;;;;;;;12.40;5.68;;;;;;;;;;5045896;28;20072;-70
2022/10/03 11:45:20;;;;;;;11.55;5.70;;;;;;;;;;5046303;28;20048;-71
2022/10/03 11:48:18;;;;;;;12.60;5.97;;;;;;;;;;5046216;28;20041;-78
2022/10/03 11:51:21;;;;;;;11.65;5.53;;;;;;;;;;5042398;28;20068;-71
2022/10/03 11:54:07;;;;;;;9.63;5.55;;;;;;;;;;5037523;28;20056;-71
2022/10/03 11:57:24;;;;;;;13.13;5.82;;;;;;;;;;5045309;28;20053;-71
2022/10/03 11:59:59;;;;;;;14.70;5.93;;;;;;;;;;5044464;28;20061;-72
2022/10/03 12:03:08;;;;;;;10.00;6.20;;;;;;;;;;5051335;28;20056;-75
2022/10/03 12:05:47;;;;;;;20.65;6.03;;;;;;;;;;5047147;28;20053;-71
2022/10/03 12:08:53;;;;;;;10.10;5.25;;;;;;;;;;5047300;28;20055;-71
2022/10/03 12:11:26;;;;;;;15.77;6.15;;;;;;;;;;5046370;28;20049;-70
2022/10/03 12:14:13;;;;;;;14.48;8.07;;;;;;;;;;5046625;28;20519;-71
2022/10/03 12:17:04;;;;;;;13.73;4.80;;;;;;;;;;5046021;28;20519;-71
2022/10/03 12:19:52;;;;;;;16.00;5.53;;;;;;;;;;5046189;28;20056;-72
2022/10/03 12:22:54;;;;;;;13.90;5.68;;;;;;;;;;5044897;28;20056;-72
2022/10/03 12:25:26;;;;;;;7.97;4.20;;;;;;;;;;5045735;28;20432;-72
2022/10/03 12:28:11;;;;;;;10.00;4.50;;;;;;;;;;5044889;28;20558;-72
2022/10/03 12:30:51;;;;;;;8.23;4.22;;;;;;;;;;5046226;28;20064;-71
2022/10/03 12:33:31;;;;;;;10.82;4.70;;;;;;;;;;5046135;28;20056;-70
2022/10/03 12:36:09;;;;;;;10.68;4.82;;;;;;;;;;5047760;28;20512;-71
2022/10/03 12:39:46;;;;;;;8.68;4.35;;;;;;;;;;5048190;28;20052;-71
2022/10/03 12:42:49;;;;;;;12.98;5.03;;;;;;;;;;5012423;28;20595;-73
2022/10/03 12:46:00;;;;;;;5.97;3.67;;;;;;;;;;5023340;28;20053;-71
2022/10/03 12:48:46;;;;;;;7.05;3.50;;;;;;;;;;5037832;28;20515;-73
2022/10/03 12:51:40;;;;;;;7.07;4.32;;;;;;;;;;5046426;28;20056;-71
2022/10/03 12:54:23;;;;;;;7.00;3.83;;;;;;;;;;5046339;28;20491;-71
2022/10/03 12:56:54;;;;;;;7.75;3.63;;;;;;;;;;5045869;28;20041;-71
2022/10/03 12:59:30;;;;;;;;;;;;;;;;;;5046300;28;20415;-73
2022/10/03 13:02:12;;;;;;;6.28;4.00;;;;;;;;;;5045519;28;19925;-73
2022/10/03 13:05:20;;;;;;;7.32;4.18;;;;;;;;;;5048519;28;20052;-72
2022/10/03 13:07:56;;;;;;;7.28;4.70;;;;;;;;;;5049566;28;20767;-72
2022/10/03 13:10:35;;;;;;;10.27;5.72;;;;;;;;;;5049834;28;20048;-72
2022/10/03 13:13:52;;;;;;;8.90;4.82;;;;;;;;;;5050206;28;20053;-73
2022/10/03 13:16:28;;;;;;;7.68;5.00;;;;;;;;;;5033091;28;20396;-72
2022/10/03 13:19:14;;;;;;;8.95;5.30;;;;;;;;;;5049247;28;20053;-76
2022/10/03 13:21:44;;;;;;;6.20;4.65;;;;;;;;;;5048492;28;20045;-73
2022/10/03 13:24:36;;;;;;;7.05;5.15;;;;;;;;;;5049147;28;20054;-72
2022/10/03 13:27:31;;;;;;;7.50;5.35;;;;;;;;;;5049119;28;20049;-72
2022/10/03 13:30:04;;;;;;;10.45;4.55;;;;;;;;;;5048611;28;20072;-73
2022/10/03 13:32:39;;;;;;;8.40;5.53;;;;;;;;;;5048777;28;20531;-73
2022/10/03 13:36:01;;;;;;;7.63;5.18;;;;;;;;;;5049309;28;20071;-78
2022/10/03 13:38:50;;;;;;;11.77;6.22;;;;;;;;;;5040064;28;20063;-72
2022/10/03 13:41:32;;;;;;;6.50;5.07;;;;;;;;;;5049182;28;20060;-73
2022/10/03 13:44:08;;;;;;;10.35;4.60;;;;;;;;;;5046740;28;20060;-73
2022/10/03 13:46:59;;;;;;;8.75;6.25;;;;;;;;;;5048756;28;20120;-73
2022/10/03 13:49:37;;;;;;;11.23;6.97;;;;;;;;;;5048773;28;20045;-78
2022/10/03 13:52:09;;;;;;;12.38;7.53;;;;;;;;;;5048809;28;20056;-73
2022/10/03 13:55:00;;;;;;;11.48;7.35;;;;;;;;;;5049348;28;20407;-73
2022/10/03 13:58:09;;;;;;;14.02;7.72;;;;;;;;;;5048905;28;20045;-73
2022/10/03 14:01:06;;;;;;;12.43;7.25;;;;;;;;;;5047627;28;20092;-80
2022/10/03 14:04:04;;;;;;;14.13;7.75;;;;;;;;;;5048203;28;20511;-73
2022/10/03 14:06:47;;;;;;;12.35;8.13;;;;;;;;;;5048226;28;20103;-73
2022/10/03 14:09:35;;;;;;;14.98;8.77;;;;;;;;;;5048466;28;20689;-72
2022/10/03 14:12:23;;;;;;;14.73;8.88;;;;;;;;;;5048494;28;20048;-73
2022/10/03 14:15:26;;;;;;;15.48;9.38;;;;;;;;;;5047153;28;20500;-73
2022/10/03 14:18:14;;;;;;;16.98;8.82;;;;;;;;;;5048932;28;20049;-73
2022/10/03 14:21:17;;;;;;;16.65;10.13;;;;;;;;;;5048755;28;20060;-73
2022/10/03 14:23:50;;;;;;;18.52;10.65;;;;;;;;;;5046874;28;20053;-74
2022/10/03 14:26:45;;;;;;;16.52;10.25;;;;;;;;;;5048356;28;20045;-73
2022/10/03 14:29:14;;;;;;;;;;;;;;;;;;5048130;28;20060;-73
2022/10/03 14:32:02;;;;;;;11.02;7.18;;;;;;;;;;5047473;28;19925;-73
2022/10/03 14:35:24;;;;;;;13.60;8.60;;;;;;;;;;5048588;28;20041;-73
2022/10/03 14:38:00;;;;;;;9.15;6.50;;;;;;;;;;5047247;28;20056;-75
2022/10/03 14:40:47;;;;;;;11.82;7.22;;;;;;;;;;5047922;28;20400;-73
2022/10/03 14:43:27;;;;;;;12.48;7.82;;;;;;;;;;5047782;28;20052;-73
2022/10/03 14:46:00;;;;;;;11.95;7.80;;;;;;;;;;5047478;28;20057;-73
2022/10/03 14:48:43;;;;;;;10.73;7.22;;;;;;;;;;5047670;28;20051;-73
2022/10/03 14:51:29;;;;;;;11.20;7.25;;;;;;;;;;5046259;28;20063;-73
2022/10/03 14:54:20;;;;;;;17.00;8.23;;;;;;;;;;5047156;28;20539;-75
2022/10/03 14:56:51;;;;;;;9.90;7.28;;;;;;;;;;5046291;28;20499;-74
2022/10/03 14:59:24;;;;;;;13.02;8.48;;;;;;;;;;5047590;28;20041;-73
2022/10/03 15:02:00;;;;;;;12.07;8.48;;;;;;;;;;5047646;28;20072;-73
2022/10/03 15:04:42;;;;;;;11.23;7.50;;;;;;;;;;5047350;28;20047;-73
2022/10/03 15:07:13;;;;;;;14.50;8.38;;;;;;;;;;5047156;28;20515;-75
2022/10/03 15:09:49;;;;;;;9.32;6.00;;;;;;;;;;5047122;28;20419;-73
2022/10/03 15:12:24;;;;;;;13.70;7.03;;;;;;;;;;5046792;28;20049;-73
2022/10/03 15:14:58;;;;;;;;;;;;;;;;;;5047515;28;20512;-73
2022/10/03 15:17:35;;;;;;;12.85;7.13;;;;;;;;;;5047270;28;19924;-73
2022/10/03 15:20:06;;;;;;;8.73;5.95;;;;;;;;;;5047777;28;20040;-74
2022/10/03 15:22:41;;;;;;;8.57;6.28;;;;;;;;;;5047480;28;20057;-73
2022/10/03 15:25:26;;;;;;;13.70;6.60;;;;;;;;;;5047402;28;20037;-74
2022/10/03 15:28:01;;;;;;;9.38;6.57;;;;;;;;;;5046862;28;20045;-73
2022/10/03 15:30:35;;;;;;;10.25;6.55;;;;;;;;;;5046416;28;20042;-78
2022/10/03 15:33:08;;;;;;;9.27;6.38;;;;;;;;;;5046666;28;20056;-73
2022/10/03 15:35:40;;;;;;;9.38;6.68;;;;;;;;;;5047214;28;20064;-73
2022/10/03 15:38:23;;;;;;;9.32;6.55;;;;;;;;;;5045719;28;20784;-73
2022/10/03 15:41:11;;;;;;;9.82;6.30;;;;;;;;;;5046003;28;20037;-73
2022/10/03 15:43:45;;;;;;;;;;;;;;;;;;5046085;28;20052;-73
2022/10/03 15:46:43;;;;;;;11.88;6.43;;;;;;;;;;5046792;28;19921;-73
2022/10/03 15:49:26;;;;;;;10.70;7.68;;;;;;;;;;5046791;28;20059;-73
2022/10/03 15:52:30;;;;;;;17.45;8.95;;;;;;;;;;5046462;28;20033;-76
2022/10/03 15:55:04;;;;;;;12.75;7.15;;;;;;;;;;5046375;28;20045;-73
2022/10/03 15:57:46;;;;;;;10.40;7.55;;;;;;;;;;5046350;28;20083;-73
2022/10/03 16:00:27;;;;;;;11.45;7.05;;;;;;;;;;5045284;28;20056;-74
2022/10/03 16:03:13;;;;;;;11.63;7.40;;;;;;;;;;5045955;28;20044;-73
2022/10/03 16:06:09;;;;;;;10.88;6.93;;;;;;;;;;5046080;28;20495;-74
2022/10/03 16:08:56;;;;;;;9.80;6.70;;;;;;;;;;5036879;28;20057;-75
2022/10/03 16:11:38;;;;;;;15.13;7.55;;;;;;;;;;5045103;28;20238;-72
2022/10/03 16:14:16;;;;;;;9.73;6.47;;;;;;;;;;5045762;28;20052;-73
2022/10/03 16:16:53;;;;;;;8.52;6.30;;;;;;;;;;5044210;28;20080;-73
2022/10/03 16:19:53;;;;;;;9.95;5.80;;;;;;;;;;5046265;28;20473;-76
2022/10/03 16:22:34;;;;;;;15.75;6.00;;;;;;;;;;5046063;28;20504;-72
2022/10/03 16:25:23;;;;;;;7.50;4.82;;;;;;;;;;5045955;28;20052;-75
2022/10/03 16:28:05;;;;;;;10.27;6.15;;;;;;;;;;5045707;28;20052;-73
2022/10/03 16:30:38;;;;;;;9.23;5.85;;;;;;;;;;5046420;28;20397;-73
2022/10/03 16:33:25;;;;;;;10.23;5.93;;;;;;;;;;5046465;28;20056;-73
2022/10/03 16:36:01;;;;;;;8.57;5.40;;;;;;;;;;5046359;28;20527;-73
2022/10/03 16:38:41;;;;;;;7.32;4.78;;;;;;;;;;5046331;28;20432;-73
2022/10/03 16:41:21;;;;;;;8.30;5.75;;;;;;;;;;5048337;28;20052;-73
2022/10/03 16:44:00;;;;;;;11.45;5.45;;;;;;;;;;5049728;28;20842;-72
2022/10/03 16:46:42;;;;;;;9.65;5.30;;;;;;;;;;5050020;28;20395;-73
2022/10/03 16:52:38;;;;;;;5.82;3.33;;;;;;;;;;5050301;28;20385;-73
2022/10/03 16:55:16;;;;;;;;;;;;;;;;;;5050189;28;20055;-73
2022/10/03 16:57:49;;;;;;;4.85;3.15;;;;;;;;;;5049093;28;19920;-72
2022/10/03 17:00:51;;;;;;;7.07;3.85;;;;;;;;;;5049867;28;20408;-72
2022/10/03 17:03:47;;;;;;;7.93;3.65;;;;;;;;;;5049513;28;20049;-75
2022/10/03 17:06:34;;;;;;;8.05;2.83;;;;;;;;;;5049720;28;20044;-72